Time;durP1;ratioP1;P1;durP2;ratioP2;P2;SDS_P1;SDS_P2;PMS_P1;PMS_P2;Temp;Humidity;BMP_temperature;BMP_pressure;BME280_temperature;BME280_humidity;BME280_pressure;Samples;Min_cycle;Max_cycle;Signal;HPM_P1;HPM_P2
2023/06/18 00:01:57;;;;;;;23.33;18.90;;;13.80;76.00;;;;;;5014305;28;20177;-55
2023/06/18 00:04:22;;;;;;;19.87;17.33;;;13.70;99.90;;;;;;5012930;28;20415;-56
2023/06/18 00:06:48;;;;;;;29.83;19.03;;;13.70;99.90;;;;;;5013502;28;20479;-56
2023/06/18 00:09:14;;;;;;;21.53;17.90;;;13.80;99.90;;;;;;5013029;28;20214;-56
2023/06/18 00:11:40;;;;;;;20.53;17.90;;;13.70;99.90;;;;;;5013568;28;20180;-56
2023/06/18 00:14:05;;;;;;;21.17;18.30;;;13.70;99.90;;;;;;5013236;28;20411;-55
2023/06/18 00:16:31;;;;;;;22.00;17.93;;;13.70;99.90;;;;;;5013777;28;20192;-56
2023/06/18 00:18:56;;;;;;;24.27;20.03;;;13.60;99.90;;;;;;5013355;28;20199;-56
2023/06/18 00:21:22;;;;;;;23.83;19.70;;;13.60;99.90;;;;;;5013019;28;20181;-54
2023/06/18 00:23:47;;;;;;;23.40;18.40;;;13.60;99.90;;;;;;5013316;28;20211;-55
2023/06/18 00:26:13;;;;;;;23.17;18.60;;;13.60;99.90;;;;;;5013106;28;20621;-55
2023/06/18 00:28:39;;;;;;;23.67;18.73;;;13.50;99.90;;;;;;5012967;28;20213;-56
2023/06/18 00:31:05;;;;;;;22.97;19.90;;;13.50;99.90;;;;;;5012990;28;20185;-55
2023/06/18 00:33:33;;;;;;;28.10;20.93;;;13.50;99.90;;;;;;5013355;28;20187;-55
2023/06/18 00:35:59;;;;;;;25.00;19.20;;;13.40;99.90;;;;;;5013400;28;20454;-56
2023/06/18 00:38:28;;;;;;;26.03;19.97;;;13.40;99.90;;;;;;5012779;28;20920;-55
2023/06/18 00:40:54;;;;;;;24.57;18.90;;;13.40;99.90;;;;;;5012778;28;20453;-56
2023/06/18 00:43:20;;;;;;;24.90;19.33;;;13.40;99.90;;;;;;5012960;28;20424;-55
2023/06/18 00:45:46;;;;;;;27.30;19.70;;;13.40;99.90;;;;;;5012640;28;20223;-57
2023/06/18 00:48:13;;;;;;;24.40;18.70;;;13.40;99.90;;;;;;5012852;28;20193;-56
2023/06/18 00:50:40;;;;;;;25.30;20.47;;;13.40;99.90;;;;;;5012319;28;20429;-55
2023/06/18 00:53:07;;;;;;;23.73;20.20;;;13.40;99.90;;;;;;5012926;28;20471;-56
2023/06/18 00:55:37;;;;;;;23.17;19.30;;;13.40;99.90;;;;;;5012739;28;20426;-59
2023/06/18 00:58:03;;;;;;;25.87;20.43;;;13.30;99.90;;;;;;5012677;28;20412;-56
2023/06/18 01:00:34;;;;;;;26.27;21.03;;;13.30;99.90;;;;;;5012636;28;20427;-57
2023/06/18 01:03:02;;;;;;;25.33;19.50;;;13.30;99.90;;;;;;5012565;28;20427;-53
2023/06/18 01:05:31;;;;;;;24.20;20.27;;;13.30;99.90;;;;;;5012500;28;20470;-56
2023/06/18 01:07:59;;;;;;;22.30;18.57;;;13.30;99.90;;;;;;5012848;28;20431;-55
2023/06/18 01:10:28;;;;;;;26.00;19.63;;;13.30;99.90;;;;;;5012544;28;20919;-56
2023/06/18 01:12:55;;;;;;;26.40;18.50;;;13.30;99.90;;;;;;5012544;28;20426;-55
2023/06/18 01:15:21;;;;;;;21.37;18.70;;;13.30;99.90;;;;;;5012175;28;20498;-55
2023/06/18 01:17:48;;;;;;;26.73;19.23;;;13.20;99.90;;;;;;5011511;28;20510;-55
2023/06/18 01:20:16;;;;;;;26.73;20.10;;;13.20;99.90;;;;;;5012407;28;20180;-56
2023/06/18 01:22:52;;;;;;;22.93;19.30;;;13.10;99.90;;;;;;5012559;28;20522;-55
2023/06/18 01:25:22;;;;;;;24.17;19.70;;;13.10;99.90;;;;;;5012411;28;20458;-55
2023/06/18 01:27:50;;;;;;;21.40;19.07;;;13.10;99.90;;;;;;5012421;28;20411;-57
2023/06/18 01:30:16;;;;;;;30.10;22.07;;;13.00;99.90;;;;;;5012056;28;20426;-56
2023/06/18 01:32:41;;;;;;;23.73;19.70;;;13.10;99.90;;;;;;5012265;28;20419;-55
2023/06/18 01:35:15;;;;;;;21.23;18.90;;;13.00;99.90;;;;;;5012383;28;20489;-55
2023/06/18 01:37:50;;;;;;;25.30;20.37;;;13.00;99.90;;;;;;5012351;28;20231;-56
2023/06/18 01:40:46;;;;;;;27.10;21.17;;;13.00;99.90;;;;;;5012182;28;20473;-56
2023/06/18 01:43:37;;;;;;;26.27;19.93;;;13.00;99.90;;;;;;5012037;28;20461;-56
2023/06/18 01:46:14;;;;;;;23.27;19.77;;;13.00;99.90;;;;;;5008686;28;20486;-56
2023/06/18 01:48:45;;;;;;;23.87;19.97;;;13.00;99.90;;;;;;5012270;28;20443;-56
2023/06/18 01:51:12;;;;;;;25.00;19.23;;;12.90;99.90;;;;;;5012150;28;20410;-56
2023/06/18 01:53:41;;;;;;;22.90;19.23;;;12.90;99.90;;;;;;5011798;28;20481;-56
2023/06/18 01:56:09;;;;;;;28.03;19.83;;;12.90;99.90;;;;;;5011981;28;20466;-56
2023/06/18 01:58:36;;;;;;;24.73;19.53;;;12.90;99.90;;;;;;5011608;28;20920;-54
2023/06/18 02:01:02;;;;;;;25.00;19.50;;;12.90;99.90;;;;;;5012261;28;20416;-55
2023/06/18 02:03:28;;;;;;;28.17;19.97;;;12.80;99.90;;;;;;5012284;28;20922;-56
2023/06/18 02:05:55;;;;;;;27.07;19.30;;;12.80;99.90;;;;;;5011455;28;20834;-57
2023/06/18 02:08:20;;;;;;;29.10;21.27;;;12.80;99.90;;;;;;5011681;28;20920;-57
2023/06/18 02:10:46;;;;;;;24.50;20.30;;;12.70;99.90;;;;;;5011979;28;20430;-56
2023/06/18 02:13:12;;;;;;;25.10;19.37;;;12.70;99.90;;;;;;5012051;28;20595;-55
2023/06/18 02:15:39;;;;;;;26.30;21.30;;;12.70;99.90;;;;;;5011562;28;20188;-56
2023/06/18 02:18:05;;;;;;;24.33;19.43;;;12.70;99.90;;;;;;5011666;28;20426;-55
2023/06/18 02:20:31;;;;;;;28.17;20.80;;;12.70;99.90;;;;;;5012369;28;20454;-56
2023/06/18 02:22:56;;;;;;;23.07;18.97;;;12.70;99.90;;;;;;5012095;28;20180;-54
2023/06/18 02:25:28;;;;;;;21.63;19.27;;;12.70;99.90;;;;;;5011813;28;20665;-56
2023/06/18 02:27:58;;;;;;;24.60;19.30;;;12.70;99.90;;;;;;5013313;28;20176;-55
2023/06/18 02:30:24;;;;;;;25.53;20.03;;;12.60;99.90;;;;;;5015559;28;20419;-56
2023/06/18 02:32:50;;;;;;;23.60;20.07;;;12.60;99.90;;;;;;5015358;28;20450;-56
2023/06/18 02:35:16;;;;;;;25.20;19.70;;;12.60;99.90;;;;;;5014899;28;20423;-55
2023/06/18 02:37:42;;;;;;;23.93;19.33;;;12.60;99.90;;;;;;5015369;28;20184;-56
2023/06/18 02:40:09;;;;;;;24.87;19.30;;;12.60;99.90;;;;;;5015093;28;20423;-56
2023/06/18 02:42:35;;;;;;;27.30;20.33;;;12.60;99.90;;;;;;5015147;28;20188;-55
2023/06/18 02:45:03;;;;;;;29.03;22.37;;;12.50;99.90;;;;;;5015314;28;20434;-56
2023/06/18 02:47:28;;;;;;;39.43;23.53;;;12.50;99.90;;;;;;5015353;28;20192;-55
2023/06/18 02:49:55;;;;;;;27.10;21.20;;;12.50;99.90;;;;;;5014898;28;20419;-56
2023/06/18 02:52:20;;;;;;;26.30;21.27;;;12.50;99.90;;;;;;5014819;28;20242;-55
2023/06/18 02:54:46;;;;;;;22.87;19.50;;;12.50;99.90;;;;;;5014943;28;20503;-55
2023/06/18 02:57:11;;;;;;;32.10;21.90;;;12.50;99.90;;;;;;5014737;28;20199;-55
2023/06/18 02:59:37;;;;;;;26.93;21.43;;;12.60;99.90;;;;;;5014414;28;20188;-55
2023/06/18 03:02:04;;;;;;;21.60;18.67;;;12.50;99.90;;;;;;5014810;28;20238;-55
2023/06/18 03:04:30;;;;;;;31.27;22.60;;;12.50;99.90;;;;;;5014913;28;20188;-55
2023/06/18 03:06:59;;;;;;;29.70;22.10;;;12.50;99.90;;;;;;5014597;28;20501;-55
2023/06/18 03:09:25;;;;;;;28.00;21.87;;;12.60;99.90;;;;;;5014385;28;20427;-55
2023/06/18 03:11:51;;;;;;;114.60;78.57;;;12.60;99.90;;;;;;5014582;28;20419;-56
2023/06/18 03:14:20;;;;;;;46.90;35.83;;;12.60;99.90;;;;;;5014921;28;20426;-55
2023/06/18 03:16:46;;;;;;;120.30;86.43;;;12.60;99.90;;;;;;5014426;28;20198;-55
2023/06/18 03:19:11;;;;;;;77.10;51.43;;;12.60;99.90;;;;;;5014280;28;20411;-55
2023/06/18 03:21:37;;;;;;;72.97;45.57;;;12.70;99.90;;;;;;5014290;28;20203;-55
2023/06/18 03:24:03;;;;;;;42.47;28.70;;;12.70;99.90;;;;;;5014160;28;20551;-55
2023/06/18 03:26:29;;;;;;;36.77;25.00;;;12.80;99.90;;;;;;5014037;28;20224;-55
2023/06/18 03:28:54;;;;;;;30.37;23.97;;;12.80;99.90;;;;;;5014377;28;20537;-54
2023/06/18 03:31:21;;;;;;;28.80;22.97;;;12.80;99.90;;;;;;5013884;28;20415;-55
2023/06/18 03:33:46;;;;;;;27.73;22.70;;;12.80;99.90;;;;;;5014327;28;20180;-55
2023/06/18 03:36:17;;;;;;;28.23;23.67;;;12.80;99.90;;;;;;5013870;28;20489;-56
2023/06/18 03:38:45;;;;;;;27.90;21.97;;;12.80;99.90;;;;;;5014175;28;20181;-55
2023/06/18 03:41:12;;;;;;;28.07;20.97;;;12.90;99.90;;;;;;5013070;28;20428;-54
2023/06/18 03:43:38;;;;;;;25.87;21.27;;;12.90;99.90;;;;;;5013829;28;20428;-55
2023/06/18 03:46:04;;;;;;;31.80;24.43;;;12.90;99.90;;;;;;5013886;28;20468;-55
2023/06/18 03:48:29;;;;;;;29.27;23.07;;;12.90;99.90;;;;;;5014277;28;20187;-57
2023/06/18 03:50:55;;;;;;;27.47;22.80;;;12.90;99.90;;;;;;5014030;28;20412;-55
2023/06/18 03:53:20;;;;;;;29.00;22.80;;;13.00;99.90;;;;;;5013293;28;20588;-55
2023/06/18 03:55:46;;;;;;;29.87;24.77;;;13.00;99.90;;;;;;5013464;28;20230;-55
2023/06/18 03:58:12;;;;;;;31.23;23.70;;;13.00;99.90;;;;;;5013779;28;20185;-56
2023/06/18 04:00:38;;;;;;;24.70;20.43;;;13.00;99.90;;;;;;5013471;28;20195;-55
2023/06/18 04:03:05;;;;;;;31.27;23.97;;;13.10;99.90;;;;;;5013597;28;20267;-55
2023/06/18 04:05:31;;;;;;;25.50;22.70;;;13.10;99.90;;;;;;5013660;28;20220;-56
2023/06/18 04:07:56;;;;;;;25.03;21.30;;;13.20;99.90;;;;;;5013986;28;20429;-55
2023/06/18 04:10:22;;;;;;;31.80;25.97;;;13.30;99.90;;;;;;5013655;28;20199;-56
2023/06/18 04:12:48;;;;;;;32.20;26.23;;;13.30;99.90;;;;;;5013260;28;20185;-57
2023/06/18 04:15:13;;;;;;;30.73;25.53;;;13.40;99.90;;;;;;5013597;28;20180;-56
2023/06/18 04:17:41;;;;;;;35.40;26.83;;;13.40;99.90;;;;;;5013236;28;20941;-55
2023/06/18 04:20:08;;;;;;;29.60;24.30;;;13.50;99.90;;;;;;5013415;28;20184;-56
2023/06/18 04:22:33;;;;;;;35.33;25.07;;;13.60;99.90;;;;;;5013338;28;20919;-55
2023/06/18 04:24:59;;;;;;;32.00;26.83;;;13.70;99.90;;;;;;5013633;28;20419;-55
2023/06/18 04:27:25;;;;;;;26.10;21.50;;;13.80;99.90;;;;;;5013161;28;20187;-56
2023/06/18 04:29:51;;;;;;;33.13;26.63;;;13.90;99.90;;;;;;5012736;28;20218;-55
2023/06/18 04:32:17;;;;;;;30.60;25.87;;;14.00;99.90;;;;;;5013088;28;20415;-55
2023/06/18 04:34:42;;;;;;;32.40;26.03;;;14.10;99.90;;;;;;5013212;28;20434;-56
2023/06/18 04:37:08;;;;;;;32.33;25.40;;;14.30;99.90;;;;;;5013208;28;20238;-56
2023/06/18 04:39:34;;;;;;;37.20;26.80;;;14.40;99.90;;;;;;5013400;28;20188;-54
2023/06/18 04:41:59;;;;;;;30.60;25.33;;;14.60;99.90;;;;;;5013201;28;20515;-55
2023/06/18 04:44:26;;;;;;;35.10;25.77;;;14.80;99.90;;;;;;5012850;28;20595;-55
2023/06/18 04:46:51;;;;;;;29.80;23.63;;;15.00;99.90;;;;;;5012704;28;20757;-56
2023/06/18 04:49:17;;;;;;;29.40;24.17;;;15.20;99.90;;;;;;5012919;28;20507;-55
2023/06/18 04:51:44;;;;;;;28.70;23.90;;;15.40;99.90;;;;;;5012092;28;20654;-56
2023/06/18 04:54:11;;;;;;;35.07;24.30;;;15.60;99.90;;;;;;5012337;28;20267;-57
2023/06/18 04:56:36;;;;;;;29.23;23.23;;;15.70;99.90;;;;;;5012898;28;20429;-54
2023/06/18 04:59:02;;;;;;;27.07;23.47;;;15.90;99.90;;;;;;5012981;28;20436;-55
2023/06/18 05:01:28;;;;;;;23.50;21.00;;;16.10;99.90;;;;;;5012370;28;20526;-56
2023/06/18 05:03:53;;;;;;;36.00;24.90;;;16.30;99.90;;;;;;5012088;28;20181;-56
2023/06/18 05:06:19;;;;;;;30.63;25.17;;;16.40;99.90;;;;;;5012665;28;20216;-55
2023/06/18 05:08:46;;;;;;;25.33;21.60;;;16.50;99.90;;;;;;5012337;28;20185;-55
2023/06/18 05:11:13;;;;;;;29.70;23.90;;;16.70;99.90;;;;;;5012334;28;20464;-56
2023/06/18 05:13:38;;;;;;;26.90;22.37;;;16.90;99.90;;;;;;5012533;28;20498;-55
2023/06/18 05:16:04;;;;;;;26.80;23.07;;;17.00;99.90;;;;;;5012712;28;20893;-55
2023/06/18 05:18:30;;;;;;;25.37;22.60;;;17.20;99.90;;;;;;5012367;28;20217;-56
2023/06/18 05:20:56;;;;;;;30.07;25.83;;;17.40;99.90;;;;;;5012246;28;20638;-55
2023/06/18 05:23:21;;;;;;;27.90;23.30;;;17.60;99.90;;;;;;5012114;28;20427;-55
2023/06/18 05:25:47;;;;;;;24.90;22.17;;;17.80;99.90;;;;;;5012349;28;20586;-56
2023/06/18 05:28:12;;;;;;;27.47;22.03;;;17.90;99.90;;;;;;5012621;28;20194;-56
2023/06/18 05:30:38;;;;;;;25.30;20.60;;;18.10;99.90;;;;;;5011911;28;20190;-55
2023/06/18 05:33:04;;;;;;;29.07;20.30;;;18.20;99.90;;;;;;5012437;28;20184;-56
2023/06/18 05:35:29;;;;;;;23.47;19.63;;;18.40;99.70;;;;;;5012323;28;20187;-55
2023/06/18 05:37:55;;;;;;;23.13;19.37;;;18.60;99.90;;;;;;5012518;28;20212;-54
2023/06/18 05:40:20;;;;;;;25.73;20.30;;;18.80;99.90;;;;;;5011930;28;20188;-55
2023/06/18 05:42:46;;;;;;;21.83;19.53;;;18.90;14.40;;;;;;5012128;28;20182;-55
2023/06/18 05:45:12;;;;;;;23.90;18.73;;;19.10;1.00;;;;;;5012140;28;20189;-55
2023/06/18 05:47:38;;;;;;;24.57;19.30;;;19.20;1.00;;;;;;5012262;28;20425;-55
2023/06/18 05:50:04;;;;;;;22.80;19.93;;;19.50;1.00;;;;;;5012714;28;20771;-55
2023/06/18 05:52:29;;;;;;;21.90;19.60;;;19.60;99.90;;;;;;5011782;28;20250;-54
2023/06/18 05:54:55;;;;;;;23.83;20.20;;;19.80;1.00;;;;;;5012265;28;20394;-55
2023/06/18 05:57:20;;;;;;;20.87;18.67;;;20.00;1.00;;;;;;5011535;28;20658;-55
2023/06/18 05:59:48;;;;;;;21.30;18.60;;;20.20;99.90;;;;;;5012144;28;20187;-55
2023/06/18 06:02:13;;;;;;;21.37;18.77;;;20.30;99.90;;;;;;5012052;28;20180;-55
2023/06/18 06:04:39;;;;;;;22.60;20.20;;;20.50;99.90;;;;;;5015817;28;20417;-55
2023/06/18 06:07:05;;;;;;;21.77;18.37;;;20.80;99.90;;;;;;5016236;28;20261;-55
2023/06/18 06:09:30;;;;;;;22.47;17.77;;;20.90;99.90;;;;;;5015828;28;20274;-55
2023/06/18 06:11:56;;;;;;;27.73;18.97;;;21.10;1.00;;;;;;5015495;28;20230;-55
2023/06/18 06:14:22;;;;;;;24.17;17.53;;;21.30;1.00;;;;;;5015565;28;20596;-55
2023/06/18 06:16:48;;;;;;;25.83;18.37;;;21.40;1.00;;;;;;5015439;28;20466;-55
2023/06/18 06:19:14;;;;;;;27.47;18.27;;;21.60;1.00;;;;;;5015694;28;20186;-55
2023/06/18 06:21:39;;;;;;;24.70;18.30;;;21.80;1.00;;;;;;5015241;28;20512;-55
2023/06/18 06:24:06;;;;;;;22.93;17.50;;;22.00;1.00;;;;;;5015542;28;20268;-54
2023/06/18 06:26:31;;;;;;;20.20;16.70;;;22.20;1.00;;;;;;5015512;28;20212;-54
2023/06/18 06:28:57;;;;;;;23.13;17.93;;;22.40;1.00;;;;;;5015205;28;20515;-54
2023/06/18 06:31:22;;;;;;;20.73;15.93;;;22.60;1.00;;;;;;5015200;28;20224;-54
2023/06/18 06:33:48;;;;;;;20.97;17.47;;;22.80;1.00;;;;;;5030316;28;20628;-54
2023/06/18 06:36:14;;;;;;;22.60;16.80;;;22.90;1.00;;;;;;5015211;28;20651;-54
2023/06/18 06:38:40;;;;;;;21.03;16.70;;;23.10;1.00;;;;;;5015410;28;20423;-54
2023/06/18 06:41:06;;;;;;;21.50;17.30;;;23.20;1.00;;;;;;5015661;28;20641;-54
2023/06/18 06:43:31;;;;;;;21.77;17.30;;;23.50;1.00;;;;;;5015660;28;20646;-54
2023/06/18 06:45:57;;;;;;;18.37;16.47;;;23.50;1.00;;;;;;5014847;28;20251;-55
2023/06/18 06:48:22;;;;;;;17.97;14.83;;;23.70;1.00;;;;;;5014976;28;20188;-54
2023/06/18 06:50:48;;;;;;;17.27;14.67;;;23.80;1.00;;;;;;5014951;28;20191;-54
2023/06/18 06:53:13;;;;;;;16.23;14.47;;;23.90;1.00;;;;;;5014696;28;20728;-51
2023/06/18 06:55:39;;;;;;;16.30;13.33;;;24.10;1.00;;;;;;5014691;28;20552;-51
2023/06/18 06:58:04;;;;;;;17.10;15.30;;;24.30;1.00;;;;;;5014910;28;20191;-53
2023/06/18 07:00:30;;;;;;;17.00;14.00;;;24.40;1.00;;;;;;5015035;28;20546;-53
2023/06/18 07:02:56;;;;;;;13.73;12.33;;;24.50;1.00;;;;;;5014534;28;20192;-52
2023/06/18 07:05:21;;;;;;;13.47;12.17;;;24.70;1.00;;;;;;5029943;28;20180;-53
2023/06/18 07:07:47;;;;;;;15.07;12.10;;;24.70;1.00;;;;;;5014656;28;20186;-53
2023/06/18 07:10:12;;;;;;;16.00;11.00;;;24.90;1.00;;;;;;5014217;28;20193;-53
2023/06/18 07:12:38;;;;;;;13.70;11.70;;;25.10;1.00;;;;;;5014524;28;20215;-52
2023/06/18 07:15:05;;;;;;;14.20;11.63;;;25.20;1.00;;;;;;5013730;28;20214;-53
2023/06/18 07:17:30;;;;;;;15.10;11.70;;;25.30;1.00;;;;;;5014770;28;20200;-53
2023/06/18 07:19:56;;;;;;;13.17;11.77;;;25.50;1.00;;;;;;5014247;28;20913;-53
2023/06/18 07:22:21;;;;;;;11.60;10.37;;;25.60;1.00;;;;;;5014419;28;20244;-53
2023/06/18 07:24:47;;;;;;;12.13;10.90;;;25.70;1.00;;;;;;5014690;28;20187;-53
2023/06/18 07:27:12;;;;;;;11.60;10.40;;;25.90;1.00;;;;;;5014197;28;20215;-53
2023/06/18 07:29:38;;;;;;;11.07;9.73;;;26.20;1.00;;;;;;5013914;28;20187;-52
2023/06/18 07:32:04;;;;;;;13.50;11.17;;;26.10;1.00;;;;;;5014460;28;20267;-50
2023/06/18 07:34:30;;;;;;;9.77;8.80;;;26.20;1.00;;;;;;5014347;28;20628;-51
2023/06/18 07:36:56;;;;;;;12.07;9.30;;;26.40;1.00;;;;;;5014570;28;20458;-51
2023/06/18 07:39:22;;;;;;;10.47;8.67;;;26.70;1.00;;;;;;5013783;28;20188;-52
2023/06/18 07:41:47;;;;;;;11.03;9.40;;;26.90;99.90;;;;;;5014034;28;20422;-52
2023/06/18 07:44:16;;;;;;;10.03;9.03;;;27.00;1.00;;;;;;5014160;28;20176;-52
2023/06/18 07:46:45;;;;;;;13.30;10.23;;;27.00;99.90;;;;;;5012662;28;20219;-52
2023/06/18 07:49:11;;;;;;;10.67;9.57;;;26.90;99.90;;;;;;5012534;28;20568;-52
2023/06/18 07:51:37;;;;;;;10.73;8.87;;;26.90;99.90;;;;;;5012716;28;20439;-52
2023/06/18 07:54:03;;;;;;;9.67;8.87;;;27.20;99.90;;;;;;5012202;28;20474;-52
2023/06/18 07:56:29;;;;;;;9.80;8.80;;;27.40;99.90;;;;;;5011913;28;20426;-52
2023/06/18 07:58:54;;;;;;;9.80;8.83;;;27.30;99.90;;;;;;5011965;28;20177;-51
2023/06/18 08:01:20;;;;;;;10.47;9.47;;;27.40;99.90;;;;;;5012445;28;20259;-52
2023/06/18 08:03:46;;;;;;;11.20;8.60;;;27.20;99.90;;;;;;5013203;28;20644;-53
2023/06/18 08:06:11;;;;;;;9.27;8.37;;;27.40;99.90;;;;;;5013517;28;20510;-53
2023/06/18 08:08:37;;;;;;;9.03;8.17;;;27.60;99.90;;;;;;5013552;28;20195;-53
2023/06/18 08:11:02;;;;;;;10.23;8.23;;;27.80;99.90;;;;;;5012930;28;20183;-53
2023/06/18 08:13:29;;;;;;;9.63;7.63;;;28.00;99.90;;;;;;5013108;28;20555;-53
2023/06/18 08:15:54;;;;;;;8.57;7.73;;;28.30;99.90;;;;;;5013323;28;20292;-53
2023/06/18 08:18:20;;;;;;;10.87;7.37;;;28.30;99.90;;;;;;5012898;28;20437;-52
2023/06/18 08:20:46;;;;;;;10.33;8.03;;;28.40;99.90;;;;;;5012989;28;20188;-52
2023/06/18 08:23:11;;;;;;;8.50;7.70;;;28.50;99.90;;;;;;5012876;28;20274;-52
2023/06/18 08:25:37;;;;;;;8.17;7.37;;;28.60;99.90;;;;;;5012822;28;20220;-52
2023/06/18 08:28:02;;;;;;;10.13;6.50;;;28.80;99.90;;;;;;5007071;28;20180;-52
2023/06/18 08:30:28;;;;;;;7.90;7.17;;;28.80;99.90;;;;;;5003997;28;20192;-52
2023/06/18 08:32:56;;;;;;;7.60;6.90;;;28.80;99.90;;;;;;5002910;28;20187;-52
2023/06/18 08:35:22;;;;;;;7.47;6.50;;;29.10;99.90;;;;;;5004653;28;20188;-52
2023/06/18 08:37:48;;;;;;;7.67;6.97;;;29.40;99.90;;;;;;5004320;28;20876;-52
2023/06/18 08:40:14;;;;;;;7.30;6.60;;;29.40;99.90;;;;;;5006394;28;20435;-52
2023/06/18 08:42:40;;;;;;;7.97;6.40;;;29.40;99.90;;;;;;5005533;28;20203;-51
2023/06/18 08:45:07;;;;;;;6.90;6.17;;;29.30;99.90;;;;;;5005269;28;20954;-52
2023/06/18 08:47:33;;;;;;;7.50;6.90;;;29.00;99.90;;;;;;5004166;28;20235;-51
2023/06/18 08:49:59;;;;;;;8.90;7.20;;;28.80;99.90;;;;;;5001834;28;21040;-52
2023/06/18 08:52:27;;;;;;;6.93;6.30;;;28.70;99.90;;;;;;5004126;28;20515;-51
2023/06/18 08:54:54;;;;;;;6.70;6.10;;;28.80;99.90;;;;;;5004420;28;20660;-51
2023/06/18 08:57:40;;;;;;;8.27;7.57;;;29.10;99.90;;;;;;5002298;28;20526;-51
2023/06/18 09:00:08;;;;;;;7.87;7.13;;;29.50;99.90;;;;;;5005283;28;20436;-52
2023/06/18 09:02:34;;;;;;;8.30;7.50;;;30.10;99.90;;;;;;5003564;28;20440;-51
2023/06/18 09:05:03;;;;;;;7.73;6.90;;;30.20;99.90;;;;;;5005276;28;20435;-52
2023/06/18 09:07:29;;;;;;;7.77;7.00;;;30.30;99.90;;;;;;5008201;28;20218;-52
2023/06/18 09:09:55;;;;;;;7.10;6.43;;;30.60;99.90;;;;;;5012259;28;20514;-52
2023/06/18 09:12:21;;;;;;;6.93;6.23;;;30.80;99.90;;;;;;5012365;28;20267;-51
2023/06/18 09:14:47;;;;;;;7.17;6.57;;;30.80;99.90;;;;;;5012190;28;20846;-52
2023/06/18 09:17:13;;;;;;;6.87;6.27;;;30.90;99.90;;;;;;5012153;28;20675;-52
2023/06/18 09:19:39;;;;;;;6.50;6.00;;;30.90;99.90;;;;;;5011976;28;20415;-51
2023/06/18 09:22:13;;;;;;;7.40;6.80;;;30.70;99.90;;;;;;5012282;28;20188;-52
2023/06/18 09:24:39;;;;;;;6.60;6.00;;;30.60;99.90;;;;;;5012260;28;20555;-52
2023/06/18 09:27:06;;;;;;;8.50;7.00;;;30.60;99.90;;;;;;5011762;28;20467;-52
2023/06/18 09:29:38;;;;;;;6.93;6.23;;;30.70;99.90;;;;;;5011774;28;20271;-52
2023/06/18 09:32:10;;;;;;;6.60;5.70;;;31.00;99.90;;;;;;5012202;28;20501;-52
2023/06/18 09:34:36;;;;;;;6.70;5.50;;;31.20;99.90;;;;;;5012143;28;20450;-52
2023/06/18 09:37:04;;;;;;;6.03;5.53;;;31.40;99.90;;;;;;5012221;28;20434;-51
2023/06/18 09:39:31;;;;;;;6.87;5.43;;;31.50;99.90;;;;;;5015463;28;20485;-52
2023/06/18 09:42:05;;;;;;;5.77;5.27;;;31.60;99.90;;;;;;5015726;28;20451;-52
2023/06/18 09:44:30;;;;;;;6.00;5.50;;;31.30;99.90;;;;;;5015865;28;20402;-52
2023/06/18 09:46:57;;;;;;;6.40;5.17;;;31.20;99.90;;;;;;5015759;28;20462;-51
2023/06/18 09:49:25;;;;;;;5.20;4.70;;;31.30;99.90;;;;;;5015790;28;20732;-51
2023/06/18 09:51:51;;;;;;;5.90;5.40;;;31.40;99.90;;;;;;5015430;28;20922;-52
2023/06/18 09:54:17;;;;;;;5.53;5.03;;;31.20;99.90;;;;;;5015134;28;20470;-51
2023/06/18 09:56:59;;;;;;;6.37;5.27;;;31.40;99.90;;;;;;5015765;28;20425;-52
2023/06/18 09:59:25;;;;;;;5.83;5.43;;;31.60;99.90;;;;;;5016186;28;20462;-52
2023/06/18 10:01:51;;;;;;;6.67;5.90;;;32.00;99.90;;;;;;5015618;28;20434;-52
2023/06/18 10:04:18;;;;;;;6.17;5.60;;;32.20;99.90;;;;;;5015464;28;20419;-52
2023/06/18 10:07:03;;;;;;;7.03;6.37;;;32.30;99.90;;;;;;5015407;28;20513;-52
2023/06/18 10:09:32;;;;;;;6.33;5.80;;;32.40;99.90;;;;;;5015495;28;20422;-52
2023/06/18 10:12:01;;;;;;;6.30;5.80;;;32.20;99.90;;;;;;5015532;28;20491;-52
2023/06/18 10:14:28;;;;;;;6.97;6.33;;;31.90;99.90;;;;;;5014788;28;20430;-52
2023/06/18 10:17:20;;;;;;;6.40;5.90;;;32.20;99.90;;;;;;5015630;28;20419;-52
2023/06/18 10:19:54;;;;;;;6.40;5.90;;;32.60;99.90;;;;;;5015431;28;20880;-52
2023/06/18 10:22:21;;;;;;;8.60;5.90;;;32.60;99.90;;;;;;5015609;28;20731;-52
2023/06/18 10:25:07;;;;;;;7.57;6.87;;;32.40;99.90;;;;;;5015385;28;20426;-52
2023/06/18 10:27:34;;;;;;;6.80;6.20;;;32.20;99.90;;;;;;5014952;28;20470;-52
2023/06/18 10:30:00;;;;;;;7.00;6.40;;;32.20;99.90;;;;;;5014912;28;20903;-52
2023/06/18 10:32:27;;;;;;;6.67;6.07;;;31.90;99.90;;;;;;5015159;28;20419;-52
2023/06/18 10:34:56;;;;;;;6.87;6.37;;;32.20;99.90;;;;;;5015065;28;20787;-52
2023/06/18 10:37:25;;;;;;;9.47;6.50;;;32.60;99.90;;;;;;5014757;28;20412;-52
2023/06/18 10:39:51;;;;;;;6.17;5.67;;;32.80;99.90;;;;;;5014968;28;20434;-53
2023/06/18 10:42:18;;;;;;;6.43;5.93;;;32.70;99.90;;;;;;5014726;28;20489;-52
2023/06/18 10:44:47;;;;;;;7.10;6.40;;;32.60;99.90;;;;;;5014381;28;20415;-52
2023/06/18 10:47:27;;;;;;;7.83;5.97;;;31.60;99.90;;;;;;5014382;28;20501;-52
2023/06/18 10:50:14;;;;;;;7.13;6.63;;;30.40;99.90;;;;;;5014627;28;20482;-52
2023/06/18 10:52:42;;;;;;;8.40;6.70;;;30.10;99.90;;;;;;5015128;28;20505;-53
2023/06/18 10:55:26;;;;;;;6.97;6.37;;;30.80;99.90;;;;;;5014611;28;20423;-53
2023/06/18 10:58:04;;;;;;;6.90;6.20;;;31.80;99.90;;;;;;5014120;28;20517;-53
2023/06/18 11:00:37;;;;;;;6.40;5.90;;;32.60;99.90;;;;;;5014514;28;20431;-53
2023/06/18 11:03:14;;;;;;;5.93;5.43;;;33.10;99.90;;;;;;5014515;28;20427;-53
2023/06/18 11:05:47;;;;;;;6.47;5.87;;;33.20;99.90;;;;;;5014670;28;20454;-53
2023/06/18 11:08:34;;;;;;;8.23;6.10;;;33.60;99.90;;;;;;5014570;28;20419;-52
2023/06/18 11:11:10;;;;;;;8.00;6.40;;;33.90;99.90;;;;;;5013967;28;20435;-53
2023/06/18 11:13:40;;;;;;;6.33;5.83;;;33.90;99.90;;;;;;5014383;28;20438;-53
2023/06/18 11:16:06;;;;;;;7.20;5.80;;;34.20;99.90;;;;;;5014289;28;20876;-53
2023/06/18 11:18:32;;;;;;;8.90;6.23;;;34.30;99.90;;;;;;5014078;28;20430;-53
2023/06/18 11:20:59;;;;;;;6.80;6.20;;;34.40;99.90;;;;;;5013852;28;20274;-53
2023/06/18 11:23:27;;;;;;;5.97;5.47;;;33.50;99.90;;;;;;5013831;28;20957;-53
2023/06/18 11:25:53;;;;;;;6.73;6.13;;;32.80;99.90;;;;;;5013594;28;20993;-53
2023/06/18 11:28:20;;;;;;;5.73;5.33;;;32.70;99.90;;;;;;5013840;28;20911;-53
2023/06/18 11:30:48;;;;;;;6.37;5.80;;;33.00;99.90;;;;;;5014226;28;20473;-53
2023/06/18 11:33:20;;;;;;;6.40;5.80;;;33.60;99.90;;;;;;5013916;28;20419;-53
2023/06/18 11:35:45;;;;;;;5.37;4.90;;;34.10;99.90;;;;;;5013649;28;20495;-53
2023/06/18 11:38:11;;;;;;;5.93;5.50;;;34.40;99.90;;;;;;5013911;28;20506;-53
2023/06/18 11:40:50;;;;;;;7.00;6.30;;;34.40;99.90;;;;;;5013887;28;20267;-52
2023/06/18 11:43:16;;;;;;;6.37;5.77;;;34.40;99.90;;;;;;5013849;28;20413;-52
2023/06/18 11:45:46;;;;;;;5.70;5.20;;;34.60;99.90;;;;;;5013680;28;21054;-52
2023/06/18 11:48:12;;;;;;;7.33;5.27;;;34.10;99.90;;;;;;5014063;28;20177;-53
2023/06/18 11:50:37;;;;;;;5.77;5.30;;;34.30;99.90;;;;;;5013890;28;20419;-54
2023/06/18 11:53:05;;;;;;;6.10;5.60;;;34.80;99.90;;;;;;5013241;28;20318;-53
2023/06/18 11:55:32;;;;;;;4.80;4.50;;;35.00;99.90;;;;;;5013389;28;20198;-53
2023/06/18 11:58:00;;;;;;;6.33;5.80;;;35.30;99.90;;;;;;5013303;28;20418;-52
2023/06/18 12:00:26;;;;;;;10.43;5.83;;;34.50;99.90;;;;;;5012753;28;20522;-52
2023/06/18 12:02:51;;;;;;;6.43;5.97;;;33.00;99.90;;;;;;5013478;28;20822;-52
2023/06/18 12:05:17;;;;;;;6.10;5.60;;;32.00;99.90;;;;;;5013403;28;20469;-52
2023/06/18 12:07:44;;;;;;;8.53;6.00;;;31.20;99.90;;;;;;5013565;28;20185;-52
2023/06/18 12:10:11;;;;;;;6.60;5.93;;;31.20;99.90;;;;;;5013261;28;20658;-52
2023/06/18 12:12:59;;;;;;;8.23;5.50;;;32.00;99.90;;;;;;5012971;28;20397;-52
2023/06/18 12:15:56;;;;;;;6.07;5.57;;;32.90;99.90;;;;;;5012791;28;20503;-52
2023/06/18 12:18:33;;;;;;;5.60;5.20;;;33.90;99.90;;;;;;5013368;28;20404;-52
2023/06/18 12:20:59;;;;;;;7.10;6.50;;;34.10;99.90;;;;;;5013181;28;20403;-52
2023/06/18 12:23:26;;;;;;;6.47;5.87;;;33.40;99.90;;;;;;5012707;28;20783;-52
2023/06/18 12:25:53;;;;;;;6.33;5.83;;;33.20;99.90;;;;;;5012832;28;20490;-52
2023/06/18 12:28:24;;;;;;;6.10;5.43;;;33.60;99.90;;;;;;5012543;28;20435;-52
2023/06/18 12:30:53;;;;;;;8.90;6.33;;;33.90;99.90;;;;;;5012659;28;20913;-52
2023/06/18 12:33:19;;;;;;;6.60;5.43;;;34.10;99.90;;;;;;5012749;28;20427;-52
2023/06/18 12:35:56;;;;;;;6.07;5.40;;;34.10;99.90;;;;;;5012874;28;20481;-53
2023/06/18 12:38:22;;;;;;;6.57;4.77;;;34.30;99.90;;;;;;5012934;28;20487;-53